createdAt,value
2023-06-03T00:00:54.467Z,100088.69
2023-06-03T00:03:56.931Z,100086.94
2023-06-03T00:06:59.397Z,100094.13
2023-06-03T00:10:01.566Z,100099.41
2023-06-03T00:13:03.869Z,100098.25
2023-06-03T00:16:06.607Z,100108.16
2023-06-03T00:19:08.811Z,100120.16
2023-06-03T00:22:11.543Z,100120.78
2023-06-03T00:25:13.881Z,100128.44
2023-06-03T00:28:16.279Z,100126.69
2023-06-03T00:31:18.484Z,100130.00
2023-06-03T00:34:20.794Z,100133.97
2023-06-03T00:37:23.036Z,100126.59
2023-06-03T00:40:25.395Z,100133.78
2023-06-03T00:43:27.718Z,100132.19
2023-06-03T00:46:32.090Z,100132.00
2023-06-03T00:49:35.422Z,100136.94
2023-06-03T00:52:38.832Z,100128.69
2023-06-03T00:55:42.019Z,100129.44
2023-06-03T00:58:44.475Z,100137.09
2023-06-03T01:01:46.751Z,100139.03
2023-06-03T01:04:49.472Z,100142.03
2023-06-03T01:08:02.411Z,100148.47
2023-06-03T01:11:14.102Z,100139.31
2023-06-03T01:14:20.108Z,100148.94
2023-06-03T01:17:25.998Z,100142.56
2023-06-03T01:20:29.327Z,100139.06
2023-06-03T01:23:35.006Z,100140.16
2023-06-03T01:26:37.595Z,100137.25
2023-06-03T01:29:43.737Z,100134.91
2023-06-03T01:32:48.253Z,100143.00
2023-06-03T01:35:53.741Z,100134.91
2023-06-03T01:38:56.392Z,100144.78
2023-06-03T01:41:58.744Z,100139.97
2023-06-03T01:45:03.996Z,100140.28
2023-06-03T01:48:06.549Z,100142.50
2023-06-03T01:51:08.807Z,100138.47
2023-06-03T01:54:11.037Z,100149.97
2023-06-03T01:57:14.483Z,100155.41
2023-06-03T02:00:17.649Z,100150.56
2023-06-03T02:03:19.839Z,100165.38
2023-06-03T02:06:22.079Z,100166.19
2023-06-03T02:09:28.592Z,100170.22
2023-06-03T02:12:30.899Z,100169.53
2023-06-03T02:15:33.200Z,100173.13
2023-06-03T02:18:36.108Z,100175.97
2023-06-03T02:21:39.491Z,100188.25
2023-06-03T02:24:42.139Z,100201.03
2023-06-03T02:27:45.094Z,100188.34
2023-06-03T02:30:48.176Z,100185.00
2023-06-03T02:33:51.253Z,100194.88
2023-06-03T02:36:53.646Z,100201.13
2023-06-03T02:39:55.894Z,100197.91
2023-06-03T02:42:59.607Z,100205.84
2023-06-03T02:46:01.993Z,100199.50
2023-06-03T02:49:05.988Z,100201.66
2023-06-03T02:52:09.127Z,100201.00
2023-06-03T02:55:11.398Z,100213.00
2023-06-03T02:58:13.797Z,100226.63
2023-06-03T03:01:16.325Z,100228.84
2023-06-03T03:04:19.090Z,100232.97
2023-06-03T03:07:21.691Z,100233.88
2023-06-03T03:10:24.055Z,100241.19
2023-06-03T03:13:26.370Z,100237.25
2023-06-03T03:16:29.243Z,100255.19
2023-06-03T03:19:35.383Z,100254.88
2023-06-03T03:22:43.023Z,100255.75
2023-06-03T03:25:46.611Z,100268.78
2023-06-03T03:28:49.159Z,100276.31
2023-06-03T03:31:54.517Z,100269.28
2023-06-03T03:35:03.086Z,100270.91
2023-06-03T03:38:06.550Z,100274.72
2023-06-03T03:41:10.685Z,100285.59
2023-06-03T03:44:13.301Z,100281.06
2023-06-03T03:47:23.160Z,100284.94
2023-06-03T03:50:42.602Z,100295.66
2023-06-03T03:53:48.097Z,100292.34
2023-06-03T03:56:59.166Z,100286.22
2023-06-03T04:00:02.509Z,100295.66
2023-06-03T04:03:06.884Z,100291.53
2023-06-03T04:06:27.529Z,100295.66
2023-06-03T04:09:29.798Z,100297.38
2023-06-03T04:12:37.519Z,100316.00
2023-06-03T04:15:41.455Z,100311.66
2023-06-03T04:18:44.022Z,100314.06
2023-06-03T04:21:47.073Z,100316.63
2023-06-03T04:24:55.756Z,100307.78
2023-06-03T04:27:58.134Z,100316.00
2023-06-03T04:31:00.745Z,100327.72
2023-06-03T04:34:03.752Z,100322.38
2023-06-03T04:37:06.607Z,100322.59
2023-06-03T04:40:12.381Z,100318.47
2023-06-03T04:43:16.864Z,100320.81
2023-06-03T04:46:19.384Z,100320.69
2023-06-03T04:49:21.856Z,100327.16
2023-06-03T04:52:24.577Z,100320.38
2023-06-03T04:55:29.479Z,100326.44
2023-06-03T04:58:32.367Z,100326.75
2023-06-03T05:01:38.252Z,100335.84
2023-06-03T05:04:45.901Z,100338.38
2023-06-03T05:07:48.827Z,100337.53
2023-06-03T05:10:51.238Z,100338.66
2023-06-03T05:13:53.877Z,100347.88
2023-06-03T05:16:56.116Z,100346.75
2023-06-03T05:19:58.779Z,100348.66
2023-06-03T05:23:01.107Z,100349.97
2023-06-03T05:26:03.923Z,100344.66
2023-06-03T05:29:06.334Z,100339.38
2023-06-03T05:32:08.806Z,100346.72
2023-06-03T05:35:11.574Z,100349.63
2023-06-03T05:38:14.817Z,100339.22
2023-06-03T05:41:17.976Z,100355.34
2023-06-03T05:44:20.212Z,100357.47
2023-06-03T05:47:22.648Z,100354.63
2023-06-03T05:50:25.027Z,100362.88
2023-06-03T05:53:29.393Z,100353.41
2023-06-03T05:56:34.135Z,100371.44
2023-06-03T05:59:37.104Z,100368.78
2023-06-03T06:02:40.987Z,100366.78
2023-06-03T06:05:43.684Z,100379.09
2023-06-03T06:08:46.076Z,100368.69
2023-06-03T06:11:48.431Z,100381.88
2023-06-03T06:14:50.805Z,100385.56
2023-06-03T06:17:53.609Z,100382.38
2023-06-03T06:20:56.222Z,100382.56
2023-06-03T06:23:59.291Z,100375.03
2023-06-03T06:27:01.644Z,100370.38
2023-06-03T06:30:04.594Z,100384.06
2023-06-03T06:33:07.598Z,100381.59
2023-06-03T06:36:33.711Z,100391.41
2023-06-03T06:39:55.679Z,100388.03
2023-06-03T06:43:22.354Z,100397.56
2023-06-03T06:46:37.833Z,100405.19
2023-06-03T06:49:40.174Z,100399.06
2023-06-03T06:52:42.506Z,100403.03
2023-06-03T06:55:47.422Z,100404.66
2023-06-03T06:58:51.476Z,100394.25
2023-06-03T07:01:54.103Z,100410.22
2023-06-03T07:04:56.490Z,100399.19
2023-06-03T07:08:14.837Z,100410.41
2023-06-03T07:11:17.105Z,100413.88
2023-06-03T07:14:32.068Z,100401.09
2023-06-03T07:17:34.392Z,100410.19
2023-06-03T07:20:41.225Z,100413.31
2023-06-03T07:23:46.592Z,100428.53
2023-06-03T07:26:48.896Z,100424.00
2023-06-03T07:29:51.822Z,100428.16
2023-06-03T07:32:59.866Z,100429.78
2023-06-03T07:36:04.725Z,100435.56
2023-06-03T07:39:16.168Z,100437.16
2023-06-03T07:42:23.702Z,100432.38
2023-06-03T07:45:47.501Z,100429.19
2023-06-03T07:48:49.688Z,100427.47
2023-06-03T07:51:53.233Z,100426.19
2023-06-03T07:54:55.582Z,100427.63
2023-06-03T07:57:57.787Z,100426.22
2023-06-03T08:01:00.065Z,100428.28
2023-06-03T08:04:05.131Z,100441.44
2023-06-03T08:07:08.562Z,100438.81
2023-06-03T08:10:19.202Z,100441.81
2023-06-03T08:13:21.405Z,100437.22
2023-06-03T08:16:23.684Z,100443.53
2023-06-03T08:19:25.983Z,100429.34
2023-06-03T08:22:42.462Z,100449.16
2023-06-03T08:25:44.634Z,100443.16
2023-06-03T08:28:47.453Z,100448.34
2023-06-03T08:31:51.847Z,100455.22
2023-06-03T08:34:54.091Z,100447.63
2023-06-03T08:37:57.827Z,100447.94
2023-06-03T08:41:00.503Z,100453.88
2023-06-03T08:44:04.935Z,100445.59
2023-06-03T08:47:14.820Z,100448.84
2023-06-03T08:50:22.455Z,100444.53
2023-06-03T08:53:25.037Z,100455.06
2023-06-03T08:56:28.835Z,100456.13
2023-06-03T08:59:32.769Z,100452.09
2023-06-03T09:02:35.719Z,100446.28
2023-06-03T09:05:38.986Z,100454.38
2023-06-03T09:08:41.227Z,100458.91
2023-06-03T09:11:46.080Z,100451.34
2023-06-03T09:14:48.674Z,100456.69
2023-06-03T09:17:50.979Z,100445.41
2023-06-03T09:20:53.238Z,100457.00
2023-06-03T09:23:55.779Z,100458.78
2023-06-03T09:26:58.444Z,100465.84
2023-06-03T09:30:05.048Z,100461.13
2023-06-03T09:33:07.281Z,100464.81
2023-06-03T09:36:11.568Z,100447.88
2023-06-03T09:39:18.004Z,100464.81
2023-06-03T09:42:20.380Z,100467.63
2023-06-03T09:45:27.521Z,100442.66
2023-06-03T09:48:31.240Z,100449.50
2023-06-03T09:51:42.148Z,100456.47
2023-06-03T09:54:48.105Z,100451.00
2023-06-03T09:58:10.779Z,100444.41
2023-06-03T10:01:13.106Z,100447.81
2023-06-03T10:04:23.477Z,100445.72
2023-06-03T10:07:26.146Z,100447.84
2023-06-03T10:10:28.365Z,100438.53
2023-06-03T10:13:30.649Z,100442.09
2023-06-03T10:16:32.903Z,100455.44
2023-06-03T10:19:36.614Z,100453.97
2023-06-03T10:22:40.853Z,100455.25
2023-06-03T10:25:44.935Z,100450.75
2023-06-03T10:28:49.497Z,100448.47
2023-06-03T10:31:54.718Z,100444.78
2023-06-03T10:35:00.521Z,100448.00
2023-06-03T10:38:05.291Z,100446.56
2023-06-03T10:41:09.232Z,100446.88
2023-06-03T10:44:11.387Z,100443.69
2023-06-03T10:47:23.046Z,100444.66
2023-06-03T10:51:02.737Z,100448.69
2023-06-03T10:54:19.844Z,100443.53
2023-06-03T10:57:27.257Z,100447.22
2023-06-03T11:00:55.323Z,100444.34
2023-06-03T11:04:04.167Z,100443.69
2023-06-03T11:07:08.614Z,100443.66
2023-06-03T11:10:40.689Z,100439.16
2023-06-03T11:13:43.358Z,100443.66
2023-06-03T11:16:57.591Z,100440.28
2023-06-03T11:20:00.697Z,100436.41
2023-06-03T11:23:03.141Z,100443.38
2023-06-03T11:26:31.255Z,100438.19
2023-06-03T11:29:48.345Z,100439.47
2023-06-03T11:33:08.797Z,100426.53
2023-06-03T11:36:48.780Z,100437.09
2023-06-03T11:40:11.323Z,100420.44
2023-06-03T11:43:14.100Z,100419.03
2023-06-03T11:46:16.536Z,100425.94
2023-06-03T11:49:19.422Z,100421.09
2023-06-03T11:52:21.660Z,100416.16
2023-06-03T11:55:28.350Z,100416.03
2023-06-03T11:58:30.769Z,100408.47
2023-06-03T12:01:33.247Z,100401.03
2023-06-03T12:04:36.221Z,100396.75
2023-06-03T12:07:38.969Z,100408.09
2023-06-03T12:10:41.485Z,100405.66
2023-06-03T12:13:43.763Z,100405.44
2023-06-03T12:16:46.531Z,100391.50
2023-06-03T12:19:51.169Z,100406.06
2023-06-03T12:23:05.041Z,100397.06
2023-06-03T12:26:07.527Z,100388.19
2023-06-03T12:29:15.469Z,100394.97
2023-06-03T12:32:18.420Z,100389.91
2023-06-03T12:35:20.724Z,100392.38
2023-06-03T12:38:23.124Z,100385.72
2023-06-03T12:41:26.550Z,100390.13
2023-06-03T12:44:29.020Z,100381.03
2023-06-03T12:47:42.462Z,100371.88
2023-06-03T12:50:46.103Z,100367.72
2023-06-03T12:53:48.333Z,100356.97
2023-06-03T12:56:50.488Z,100356.56
2023-06-03T13:00:10.820Z,100355.69
2023-06-03T13:03:13.501Z,100366.84
2023-06-03T13:06:16.019Z,100354.78
2023-06-03T13:09:18.185Z,100369.03
2023-06-03T13:12:20.441Z,100364.78
2023-06-03T13:15:22.841Z,100351.25
2023-06-03T13:18:25.763Z,100354.25
2023-06-03T13:21:28.042Z,100371.09
2023-06-03T13:24:31.625Z,100356.81
2023-06-03T13:27:36.459Z,100354.63
2023-06-03T13:30:38.761Z,100353.59
2023-06-03T13:33:41.021Z,100346.47
2023-06-03T13:36:43.296Z,100340.97
2023-06-03T13:39:45.678Z,100349.41
2023-06-03T13:42:49.559Z,100357.41
2023-06-03T13:45:51.821Z,100350.47
2023-06-03T13:48:54.201Z,100340.47
2023-06-03T13:51:56.448Z,100352.78
2023-06-03T13:54:58.713Z,100353.53
2023-06-03T13:58:00.960Z,100350.97
2023-06-03T14:01:04.480Z,100335.94
2023-06-03T14:04:07.794Z,100334.00
2023-06-03T14:07:27.468Z,100340.25
2023-06-03T14:10:29.736Z,100342.19
2023-06-03T14:13:31.890Z,100334.00
2023-06-03T14:16:34.156Z,100331.31
2023-06-03T14:19:36.366Z,100326.69
2023-06-03T14:22:38.638Z,100324.13
2023-06-03T14:25:41.346Z,100322.50
2023-06-03T14:28:43.490Z,100323.00
2023-06-03T14:31:48.064Z,100326.34
2023-06-03T14:34:50.763Z,100317.16
2023-06-03T14:37:53.064Z,100307.56
2023-06-03T14:40:55.357Z,100313.78
2023-06-03T14:43:58.146Z,100304.97
2023-06-03T14:47:00.466Z,100309.25
2023-06-03T14:50:03.380Z,100314.06
2023-06-03T14:53:06.547Z,100304.00
2023-06-03T14:56:11.432Z,100306.59
2023-06-03T14:59:13.660Z,100297.97
2023-06-03T15:02:15.986Z,100299.56
2023-06-03T15:05:18.349Z,100293.28
2023-06-03T15:08:21.358Z,100300.81
2023-06-03T15:11:26.774Z,100292.56
2023-06-03T15:14:29.058Z,100295.75
2023-06-03T15:17:31.373Z,100289.44
2023-06-03T15:20:33.614Z,100291.38
2023-06-03T15:23:35.920Z,100296.72
2023-06-03T15:26:38.137Z,100297.47
2023-06-03T15:29:41.605Z,100290.31
2023-06-03T15:32:43.972Z,100294.69
2023-06-03T15:35:46.238Z,100293.00
2023-06-03T15:38:48.450Z,100285.34
2023-06-03T15:41:50.831Z,100292.13
2023-06-03T15:44:53.065Z,100289.81
2023-06-03T15:47:55.346Z,100288.09
2023-06-03T15:50:57.600Z,100285.34
2023-06-03T15:53:59.827Z,100279.75
2023-06-03T15:57:02.098Z,100288.81
2023-06-03T16:00:05.288Z,100287.22
2023-06-03T16:03:07.857Z,100286.59
2023-06-03T16:06:10.333Z,100284.13
2023-06-03T16:09:12.767Z,100276.19
2023-06-03T16:12:15.408Z,100286.16
2023-06-03T16:15:17.997Z,100281.63
2023-06-03T16:18:20.277Z,100295.16
2023-06-03T16:21:22.454Z,100289.28
2023-06-03T16:24:24.676Z,100295.22
2023-06-03T16:27:27.112Z,100301.97
2023-06-03T16:30:29.813Z,100297.72
2023-06-03T16:33:37.501Z,100296.13
2023-06-03T16:36:43.275Z,100300.66
2023-06-03T16:39:45.469Z,100299.75
2023-06-03T16:42:47.652Z,100306.69
2023-06-03T16:45:50.750Z,100309.69
2023-06-03T16:48:53.010Z,100314.22
2023-06-03T16:51:55.336Z,100318.53
2023-06-03T16:54:57.489Z,100317.94
2023-06-03T16:58:01.882Z,100321.88
2023-06-03T17:01:04.325Z,100321.69
2023-06-03T17:04:07.616Z,100325.31
2023-06-03T17:07:09.880Z,100316.75
2023-06-03T17:10:13.357Z,100321.25
2023-06-03T17:13:18.591Z,100326.97
2023-06-03T17:16:20.913Z,100328.72
2023-06-03T17:19:23.211Z,100333.78
2023-06-03T17:22:25.712Z,100318.47
2023-06-03T17:25:30.932Z,100331.47
2023-06-03T17:28:33.151Z,100336.00
2023-06-03T17:31:35.475Z,100333.75
2023-06-03T17:34:38.259Z,100335.59
2023-06-03T17:37:40.496Z,100343.47
2023-06-03T17:40:42.743Z,100343.94
2023-06-03T17:43:44.985Z,100356.97
2023-06-03T17:46:47.291Z,100363.28
2023-06-03T17:49:50.662Z,100357.25
2023-06-03T17:52:53.176Z,100357.09
2023-06-03T17:55:56.691Z,100363.19
2023-06-03T17:58:59.851Z,100363.19
2023-06-03T18:02:02.964Z,100363.75
2023-06-03T18:05:05.701Z,100370.94
2023-06-03T18:08:08.088Z,100372.28
2023-06-03T18:11:10.568Z,100391.03
2023-06-03T18:14:12.971Z,100382.91
2023-06-03T18:17:15.347Z,100395.28
2023-06-03T18:20:17.593Z,100387.94
2023-06-03T18:23:19.806Z,100398.72
2023-06-03T18:26:28.635Z,100399.53
2023-06-03T18:29:31.818Z,100400.22
2023-06-03T18:32:36.256Z,100399.91
2023-06-03T18:35:38.489Z,100401.03
2023-06-03T18:38:40.684Z,100406.31
2023-06-03T18:41:43.031Z,100410.66
2023-06-03T18:44:45.345Z,100410.16
2023-06-03T18:47:47.591Z,100424.31
2023-06-03T18:50:49.807Z,100419.16
2023-06-03T18:53:52.280Z,100403.50
2023-06-03T18:56:54.676Z,100422.34
2023-06-03T18:59:56.904Z,100422.59
2023-06-03T19:03:00.675Z,100429.97
2023-06-03T19:06:06.459Z,100420.75
2023-06-03T19:09:08.787Z,100431.00
2023-06-03T19:12:11.008Z,100428.88
2023-06-03T19:15:13.653Z,100433.84
2023-06-03T19:18:16.397Z,100425.25
2023-06-03T19:21:18.607Z,100428.28
2023-06-03T19:24:21.721Z,100445.09
2023-06-03T19:27:23.987Z,100432.81
2023-06-03T19:30:26.341Z,100438.69
2023-06-03T19:33:28.515Z,100434.94
2023-06-03T19:36:30.795Z,100443.44
2023-06-03T19:39:33.503Z,100442.56
2023-06-03T19:42:35.736Z,100450.56
2023-06-03T19:45:38.005Z,100442.41
2023-06-03T19:48:40.244Z,100463.75
2023-06-03T19:51:42.463Z,100463.25
2023-06-03T19:54:44.647Z,100450.44
2023-06-03T19:57:47.007Z,100444.59
2023-06-03T20:00:49.313Z,100453.59
2023-06-03T20:03:51.768Z,100463.38
2023-06-03T20:06:54.068Z,100455.22
2023-06-03T20:09:56.231Z,100465.63
2023-06-03T20:12:58.446Z,100468.66
2023-06-03T20:16:00.830Z,100464.41
2023-06-03T20:19:03.028Z,100472.50
2023-06-03T20:22:06.149Z,100468.56
2023-06-03T20:25:08.609Z,100473.31
2023-06-03T20:28:13.174Z,100461.56
2023-06-03T20:31:15.671Z,100463.50
2023-06-03T20:34:17.896Z,100475.69
2023-06-03T20:37:20.386Z,100469.66
2023-06-03T20:40:25.628Z,100469.25
2023-06-03T20:43:27.968Z,100460.13
2023-06-03T20:46:30.468Z,100470.53
2023-06-03T20:49:32.755Z,100485.09
2023-06-03T20:52:34.958Z,100477.59
2023-06-03T20:55:37.128Z,100498.47
2023-06-03T20:58:39.356Z,100492.94
2023-06-03T21:01:41.589Z,100488.88
2023-06-03T21:04:43.869Z,100499.97
2023-06-03T21:07:46.120Z,100502.19
2023-06-03T21:10:48.384Z,100505.84
2023-06-03T21:13:50.892Z,100510.09
2023-06-03T21:16:53.128Z,100504.13
2023-06-03T21:19:55.358Z,100526.28
2023-06-03T21:22:57.556Z,100515.25
2023-06-03T21:26:01.388Z,100524.47
2023-06-03T21:29:05.127Z,100528.41
2023-06-03T21:32:07.859Z,100513.09
2023-06-03T21:35:10.681Z,100525.31
2023-06-03T21:38:12.878Z,100505.88
2023-06-03T21:41:15.109Z,100531.13
2023-06-03T21:44:17.649Z,100528.16
2023-06-03T21:47:21.877Z,100532.59
2023-06-03T21:50:24.179Z,100517.63
2023-06-03T21:53:26.970Z,100528.31
2023-06-03T21:56:30.231Z,100520.47
2023-06-03T21:59:32.436Z,100526.78
2023-06-03T22:02:34.667Z,100525.00
2023-06-03T22:05:37.604Z,100517.28
2023-06-03T22:08:39.842Z,100513.78
2023-06-03T22:11:42.027Z,100531.94
2023-06-03T22:14:44.255Z,100532.81
2023-06-03T22:17:46.489Z,100525.84
2023-06-03T22:20:50.873Z,100523.13
2023-06-03T22:23:54.624Z,100522.09
2023-06-03T22:26:56.932Z,100525.31
2023-06-03T22:29:59.272Z,100507.81
2023-06-03T22:33:01.552Z,100520.00
2023-06-03T22:36:03.896Z,100518.09
2023-06-03T22:39:06.567Z,100508.31
2023-06-03T22:42:08.995Z,100503.00
2023-06-03T22:45:11.509Z,100488.91
2023-06-03T22:48:14.262Z,100507.28
2023-06-03T22:51:16.520Z,100506.72
2023-06-03T22:54:18.746Z,100489.41
2023-06-03T22:57:21.545Z,100501.06
2023-06-03T23:00:23.756Z,100489.16
2023-06-03T23:03:26.025Z,100491.78
2023-06-03T23:06:28.311Z,100493.16
2023-06-03T23:09:30.656Z,100504.34
2023-06-03T23:12:42.019Z,100493.25
2023-06-03T23:15:44.201Z,100492.72
2023-06-03T23:18:46.414Z,100491.22
2023-06-03T23:21:48.578Z,100491.91
2023-06-03T23:24:50.789Z,100498.09
2023-06-03T23:27:52.988Z,100503.53
2023-06-03T23:30:55.155Z,100489.53
2023-06-03T23:33:57.605Z,100496.78
2023-06-03T23:36:59.865Z,100491.34
2023-06-03T23:40:02.204Z,100497.81
2023-06-03T23:43:04.442Z,100497.00
2023-06-03T23:46:06.712Z,100481.91
2023-06-03T23:49:09.179Z,100480.69
2023-06-03T23:52:11.465Z,100482.66
2023-06-03T23:55:14.958Z,100485.59
2023-06-03T23:58:17.301Z,100476.41
